createdAt,value
2017-04-20T01:36:24.656Z,0
2017-04-20T01:37:13.240Z,0
2017-04-20T01:38:01.992Z,0
2017-04-20T01:38:50.803Z,0
2017-04-20T01:39:39.344Z,0
2017-04-20T01:40:27.804Z,0
2017-04-20T01:41:16.483Z,0
2017-04-20T01:42:04.889Z,0
2017-04-20T01:42:53.429Z,0
2017-04-20T01:43:42.320Z,0
2017-04-20T01:44:31.009Z,0
2017-04-20T01:45:19.401Z,0
2017-04-20T01:46:09.521Z,0
2017-04-20T01:46:57.439Z,0
2017-04-20T01:47:46.368Z,0
2017-04-20T01:48:34.848Z,0
2017-04-20T01:49:23.721Z,0
2017-04-20T01:50:12.478Z,0
2017-04-20T01:51:01.450Z,0
2017-04-20T01:51:49.981Z,0
2017-04-20T01:55:45.356Z,0
2017-04-20T01:56:33.568Z,0
2017-04-20T01:57:22.357Z,0
2017-04-20T01:58:11.282Z,0
2017-04-20T01:58:59.435Z,0
2017-04-20T01:59:48.175Z,0
2017-04-20T02:00:37.170Z,0
2017-04-20T02:01:25.738Z,0
2017-04-20T02:02:14.476Z,0
2017-04-20T02:03:03.374Z,0
2017-04-20T02:03:51.696Z,0
2017-04-20T02:04:42.112Z,0
2017-04-20T02:05:40.370Z,0
2017-04-20T02:58:29.442Z,0
2017-04-20T02:59:17.488Z,0
2017-04-20T03:00:06.346Z,0
2017-04-20T03:00:54.952Z,0
2017-04-20T03:01:43.798Z,0
2017-04-20T03:02:32.325Z,0
2017-04-20T03:03:20.524Z,0
2017-04-20T03:04:09.072Z,0
2017-04-20T03:04:57.984Z,0
2017-04-20T03:05:46.508Z,0
2017-04-20T03:06:35.165Z,0
2017-04-20T03:07:24.062Z,0
2017-04-20T03:08:12.417Z,0
2017-04-20T03:09:01.342Z,0
2017-04-20T03:09:49.651Z,0
2017-04-20T03:10:38.555Z,0
2017-04-20T03:11:27.409Z,0
2017-04-20T03:12:15.946Z,0
2017-04-20T03:13:04.213Z,0
2017-04-20T03:13:53.465Z,0
2017-04-20T03:14:41.937Z,0
2017-04-20T03:15:29.904Z,0
2017-04-20T03:16:19.193Z,0
2017-04-20T03:17:07.673Z,0
2017-04-20T03:17:56.488Z,0
2017-04-20T03:18:44.898Z,0
2017-04-20T03:19:33.815Z,0
2017-04-20T03:20:23.526Z,0
2017-04-20T03:21:11.454Z,0
2017-04-20T03:22:00.200Z,0
2017-04-20T03:22:49.580Z,0
2017-04-20T03:23:37.498Z,0
2017-04-20T03:24:26.976Z,0
2017-04-20T03:25:16.028Z,0
2017-04-20T03:26:04.455Z,0
2017-04-20T03:26:53.711Z,0
2017-04-20T03:27:41.938Z,0
2017-04-20T03:28:30.900Z,0
2017-04-20T03:29:19.284Z,0
2017-04-20T03:30:08.008Z,0
2017-04-20T03:30:56.492Z,0
2017-04-20T03:31:45.090Z,0
2017-04-20T03:32:34.537Z,0
2017-04-20T03:33:24.963Z,0
2017-04-20T03:34:14.421Z,0
2017-04-20T03:35:02.971Z,0
2017-04-20T03:39:22.665Z,0
2017-04-20T03:40:11.044Z,0
2017-04-20T03:40:59.949Z,0
2017-04-20T03:41:48.812Z,0
2017-04-20T03:42:40.273Z,0
2017-04-20T03:43:28.887Z,0
2017-04-20T03:44:17.734Z,0
2017-04-20T03:45:05.537Z,0
2017-04-20T03:45:52.861Z,0
2017-04-20T03:46:41.713Z,0
2017-04-20T03:47:30.215Z,0
2017-04-20T03:48:14.066Z,0
2017-04-20T03:48:54.459Z,0
2017-04-20T03:49:35.029Z,4
2017-04-20T03:50:16.228Z,0
2017-04-20T03:50:56.615Z,0
2017-04-20T03:51:37.004Z,4
2017-04-20T03:52:17.417Z,0
2017-04-20T03:56:10.708Z,4
2017-04-20T03:56:59.517Z,8
2017-04-20T04:02:44.450Z,16
2017-04-20T04:03:33.346Z,20
2017-04-20T04:04:21.581Z,20
2017-04-20T04:05:10.823Z,24
2017-04-20T04:06:04.024Z,28
2017-04-20T04:06:52.940Z,32
2017-04-20T04:07:41.088Z,36
2017-04-20T04:08:30.008Z,36
2017-04-20T04:09:18.932Z,44
2017-04-20T04:10:07.141Z,48
2017-04-20T04:10:55.928Z,56
2017-04-20T04:11:44.530Z,60
2017-04-20T07:20:18.926Z,11136
2017-04-20T07:22:40.391Z,11164
2017-04-20T07:23:28.564Z,11192
2017-04-20T08:26:12.612Z,79264
2017-04-20T08:26:52.144Z,77952
2017-04-20T08:27:32.616Z,80192
2017-04-20T08:28:12.985Z,82080
2017-04-20T08:28:53.404Z,83232
2017-04-20T08:29:33.799Z,84544
2017-04-20T08:30:14.272Z,84480
2017-04-20T08:30:54.681Z,86432
2017-04-20T08:31:35.101Z,87776
2017-04-20T08:32:15.522Z,86240
2017-04-20T08:32:55.924Z,87584
2017-04-20T08:33:36.370Z,89248
2017-04-20T08:34:16.760Z,91040
2017-04-20T08:34:57.198Z,87072
2017-04-20T08:35:37.579Z,87040
2017-04-20T08:36:18.012Z,88576
2017-04-20T08:36:58.420Z,87744
2017-04-20T08:37:38.894Z,84896
2017-04-20T08:38:19.259Z,87392
2017-04-20T08:38:59.675Z,88608
2017-04-20T08:39:40.101Z,91840
2017-04-20T08:40:20.543Z,92960
2017-04-20T08:41:00.961Z,93984
2017-04-20T08:41:41.345Z,97120
2017-04-20T08:42:21.770Z,97728
2017-04-20T08:43:02.186Z,99488
2017-04-20T08:43:42.585Z,102656
2017-04-20T08:44:23.003Z,106400
2017-04-20T08:45:03.426Z,106304
2017-04-20T08:45:43.836Z,99648
2017-04-20T08:46:24.231Z,99392
2017-04-20T08:47:04.636Z,96672
2017-04-20T08:47:46.636Z,95136
2017-04-20T08:48:27.007Z,95744
2017-04-20T08:49:07.428Z,97088
2017-04-20T08:49:47.929Z,95328
2017-04-20T08:50:28.253Z,94112
2017-04-20T08:51:08.690Z,96032
2017-04-20T08:51:49.145Z,93184
2017-04-20T08:52:29.588Z,89280
2017-04-20T08:53:10.050Z,91872
2017-04-20T08:53:50.433Z,93856
2017-04-20T08:54:30.865Z,94496
2017-04-20T08:55:11.254Z,40544
2017-04-20T08:55:51.685Z,28960
2017-04-20T08:56:32.097Z,38048
2017-04-20T08:57:12.508Z,76128
2017-04-20T08:57:52.943Z,107200
2017-04-20T08:58:33.357Z,105536
2017-04-20T08:59:13.752Z,27520
2017-04-20T08:59:54.210Z,23456
2017-04-20T09:00:34.599Z,21120
2017-04-20T09:01:15.032Z,76736
2017-04-20T09:01:55.431Z,87520
2017-04-20T09:02:35.871Z,108928
2017-04-20T09:03:16.262Z,110048
2017-04-20T09:03:56.686Z,105184
2017-04-20T09:04:37.130Z,101824
2017-04-20T09:05:17.537Z,36320
2017-04-20T09:05:57.945Z,102016
2017-04-20T09:06:38.361Z,102848
2017-04-20T09:07:18.775Z,103520
2017-04-20T09:07:59.225Z,105824
2017-04-20T09:08:39.659Z,102464
2017-04-20T09:09:20.033Z,104000
2017-04-20T09:10:00.454Z,61664
2017-04-20T09:10:40.890Z,34912
2017-04-20T09:11:21.312Z,36320
2017-04-20T09:12:01.723Z,69216
2017-04-20T09:12:42.187Z,111520
2017-04-20T09:13:22.603Z,109120
2017-04-20T09:14:03.092Z,101248
2017-04-20T09:14:43.492Z,99872
2017-04-20T09:15:23.914Z,105376
2017-04-20T09:16:04.483Z,108736
2017-04-20T09:16:44.908Z,101952
2017-04-20T09:17:25.328Z,100128
2017-04-20T09:18:05.744Z,88032
2017-04-20T09:18:46.145Z,107456
2017-04-20T09:19:26.575Z,104256
2017-04-20T09:20:07.069Z,46272
2017-04-20T09:20:47.440Z,110400
2017-04-20T09:21:27.881Z,113824
2017-04-20T09:22:08.281Z,116640
2017-04-20T09:22:48.723Z,117504
2017-04-20T09:23:29.149Z,103552
2017-04-20T09:24:09.543Z,103584
2017-04-20T09:24:50.019Z,104768
2017-04-20T09:25:30.436Z,98656
2017-04-20T09:26:10.866Z,99936
2017-04-20T09:26:51.234Z,102112
2017-04-20T09:27:31.661Z,57536
2017-04-20T09:28:12.187Z,94784
2017-04-20T09:28:52.512Z,93920
2017-04-20T09:29:32.914Z,90656
2017-04-20T09:30:13.336Z,91328
2017-04-20T09:30:53.794Z,96576
2017-04-20T09:31:34.199Z,97120
2017-04-20T09:32:14.641Z,100000
2017-04-20T09:32:55.061Z,98976
2017-04-20T09:33:35.486Z,99904
2017-04-20T09:34:15.889Z,101536
2017-04-20T09:34:56.334Z,101088
2017-04-20T09:35:36.740Z,96928
2017-04-20T09:36:17.139Z,94560
2017-04-20T09:36:57.653Z,94944
2017-04-20T09:37:38.019Z,94656
2017-04-20T09:38:18.519Z,95136
2017-04-20T09:38:58.939Z,94272
2017-04-20T09:39:39.360Z,91616
2017-04-20T09:40:19.775Z,96320
2017-04-20T09:41:00.212Z,95872
2017-04-20T09:41:40.620Z,99584
2017-04-20T09:42:21.051Z,100000
2017-04-20T09:43:01.443Z,103168
2017-04-20T09:43:41.862Z,103424
2017-04-20T09:44:22.301Z,103136
2017-04-20T09:45:02.728Z,99808
2017-04-20T09:45:43.130Z,100864
2017-04-20T09:46:23.540Z,104736
2017-04-20T09:47:03.976Z,100352
2017-04-20T09:47:44.405Z,101280
2017-04-20T09:48:24.916Z,98880
2017-04-20T09:49:05.325Z,95584
2017-04-20T09:49:45.731Z,91936
2017-04-20T09:50:26.157Z,96288
2017-04-20T09:51:06.621Z,102784
2017-04-20T09:51:47.024Z,106528
2017-04-20T09:52:27.470Z,103904
2017-04-20T09:53:07.873Z,100192
2017-04-20T09:53:48.262Z,102560
2017-04-20T09:54:28.709Z,106880
2017-04-20T09:57:03.118Z,101760
2017-04-20T09:57:43.458Z,103840
2017-04-20T09:58:23.877Z,103808
2017-04-20T09:59:04.336Z,105344
2017-04-20T09:59:44.801Z,104896
2017-04-20T10:00:25.188Z,103296
2017-04-20T10:01:05.596Z,99200
2017-04-20T10:01:46.026Z,96832
2017-04-20T10:02:26.445Z,94432
2017-04-20T10:03:06.842Z,98368
2017-04-20T10:03:47.264Z,102592
2017-04-20T10:06:20.620Z,50304
2017-04-20T10:07:00.980Z,106336
2017-04-20T10:07:41.479Z,107104
2017-04-20T10:08:21.821Z,115296
2017-04-20T10:09:02.296Z,113248
2017-04-20T10:09:42.749Z,105088
2017-04-20T10:10:23.118Z,105440
2017-04-20T10:11:03.544Z,104768
2017-04-20T10:11:44.010Z,87200
2017-04-20T10:12:24.458Z,117632
2017-04-20T10:13:04.870Z,121056
2017-04-20T10:13:45.322Z,34816
2017-04-20T10:14:25.754Z,27456
2017-04-20T10:15:06.169Z,38144
2017-04-20T10:15:46.582Z,32096
2017-04-20T10:16:27.003Z,26720
2017-04-20T10:17:07.460Z,26848
2017-04-20T10:17:47.915Z,32288
2017-04-20T10:18:28.419Z,114496
2017-04-20T10:19:08.824Z,113344
2017-04-20T10:19:49.259Z,113856
2017-04-20T10:20:29.688Z,110144
2017-04-20T10:21:10.098Z,105824
2017-04-20T10:21:50.572Z,103424
2017-04-20T10:22:30.979Z,104224
2017-04-20T10:23:11.994Z,103840
2017-04-20T10:23:52.483Z,103360
2017-04-20T10:24:32.899Z,99616
2017-04-20T10:25:13.333Z,97088
2017-04-20T10:25:53.739Z,101056
2017-04-20T10:26:34.179Z,108000
2017-04-20T10:27:14.565Z,112576
2017-04-20T10:27:54.992Z,110016
2017-04-20T10:28:35.444Z,101568
2017-04-20T10:29:15.845Z,99968
2017-04-20T10:29:56.242Z,105760
2017-04-20T10:30:36.640Z,110144
2017-04-20T10:31:17.067Z,103296
2017-04-20T10:31:57.497Z,92992
2017-04-20T10:32:37.908Z,91840
2017-04-20T10:33:18.346Z,96128
2017-04-20T10:33:58.712Z,102272
2017-04-20T10:34:39.161Z,106080
2017-04-20T10:35:19.665Z,110304
2017-04-20T10:36:00.101Z,110272
2017-04-20T10:36:40.538Z,107968
2017-04-20T10:37:20.956Z,109120
2017-04-20T10:38:01.381Z,113056
2017-04-20T10:38:41.823Z,108128
2017-04-20T10:39:22.234Z,101216
2017-04-20T10:40:02.668Z,99712
2017-04-20T10:40:43.153Z,101536
2017-04-20T10:41:23.561Z,99744
2017-04-20T10:42:04.023Z,95104
2017-04-20T10:42:44.474Z,97824
2017-04-20T10:43:24.905Z,102080
2017-04-20T10:44:05.302Z,104704
2017-04-20T10:44:45.670Z,107776
2017-04-20T10:45:26.109Z,109888
2017-04-20T10:46:06.524Z,114976
2017-04-20T10:46:46.996Z,113024
2017-04-20T10:47:27.441Z,112768
2017-04-20T10:48:07.898Z,83264
2017-04-20T10:48:48.346Z,118912
2017-04-20T10:49:28.779Z,116576
2017-04-20T10:50:09.190Z,115840
2017-04-20T10:50:49.599Z,109152
2017-04-20T10:51:30.045Z,104608
2017-04-20T10:52:10.449Z,104992
2017-04-20T10:52:50.894Z,102560
2017-04-20T10:53:31.333Z,44320
2017-04-20T10:54:11.770Z,36480
2017-04-20T10:54:52.162Z,46624
2017-04-20T10:55:32.614Z,110720
2017-04-20T10:56:13.071Z,104128
2017-04-20T10:56:53.494Z,107008
2017-04-20T10:57:33.922Z,112064
2017-04-20T10:58:14.312Z,114560
2017-04-20T10:58:54.800Z,113280
2017-04-20T10:59:35.195Z,108480
2017-04-20T11:00:15.610Z,105792
2017-04-20T11:00:56.067Z,105888
2017-04-20T11:01:36.505Z,107712
2017-04-20T11:02:16.976Z,107552
2017-04-20T11:02:57.331Z,102816
2017-04-20T11:03:37.821Z,103360
2017-04-20T11:04:18.244Z,104128
2017-04-20T11:04:58.710Z,104704
2017-04-20T11:05:39.179Z,106112
2017-04-20T11:06:19.568Z,109984
2017-04-20T11:07:00.138Z,111648
2017-04-20T11:07:40.546Z,114208
2017-04-20T11:08:20.971Z,109600
2017-04-20T11:09:01.379Z,104064
2017-04-20T11:09:41.783Z,102528
2017-04-20T11:10:22.230Z,102432
2017-04-20T11:11:02.662Z,105984
2017-04-20T11:11:43.114Z,108640
2017-04-20T11:12:23.501Z,109792
2017-04-20T11:13:03.915Z,106816
2017-04-20T11:13:44.364Z,103968
2017-04-20T11:14:24.777Z,102688
2017-04-20T11:15:05.189Z,103360
2017-04-20T11:15:45.580Z,103392
2017-04-20T11:16:26.035Z,104128
2017-04-20T11:17:06.465Z,109280
2017-04-20T11:17:46.860Z,114752
2017-04-20T11:18:27.299Z,111872
2017-04-20T11:19:07.743Z,111904
2017-04-20T11:19:48.164Z,112032
2017-04-20T11:20:28.588Z,112384
2017-04-20T11:21:09.037Z,111584
2017-04-20T11:21:49.487Z,113088
2017-04-20T11:22:29.902Z,113952
2017-04-20T11:23:10.342Z,114368
2017-04-20T11:23:50.710Z,112096
2017-04-20T11:24:31.125Z,107104
2017-04-20T11:25:11.593Z,104864
2017-04-20T11:25:52.038Z,104800
2017-04-20T11:26:32.434Z,112128
2017-04-20T11:27:12.874Z,111520
2017-04-20T11:27:53.291Z,111232
2017-04-20T11:28:33.683Z,108672
2017-04-20T11:29:14.129Z,105664
2017-04-20T11:29:54.567Z,105344
2017-04-20T11:30:34.971Z,109760
2017-04-20T11:31:15.398Z,111552
2017-04-20T11:31:55.840Z,108288
2017-04-20T11:32:36.296Z,102720
2017-04-20T11:33:16.659Z,101920
2017-04-20T11:33:57.099Z,93280
2017-04-20T11:34:37.467Z,73984
2017-04-20T11:35:17.933Z,69440
2017-04-20T11:35:58.348Z,60032
2017-04-20T11:36:38.810Z,24128
2017-04-20T11:37:19.229Z,25824
2017-04-20T11:37:59.644Z,85920
2017-04-20T11:38:40.423Z,86400
2017-04-20T11:39:20.849Z,102496
2017-04-20T11:40:01.253Z,66976
2017-04-20T11:40:41.681Z,67264
2017-04-20T11:41:22.124Z,98912
2017-04-20T11:42:02.570Z,110528
2017-04-20T11:42:43.086Z,107712
2017-04-20T11:43:23.456Z,105984
2017-04-20T11:44:03.856Z,102176
2017-04-20T11:44:44.392Z,104704
2017-04-20T11:45:25.136Z,109088
2017-04-20T11:46:05.585Z,115264
2017-04-20T11:46:45.975Z,113504
2017-04-20T11:47:26.458Z,113056
2017-04-20T11:48:06.845Z,108832
2017-04-20T11:48:47.306Z,108640
2017-04-20T11:49:27.725Z,108640
2017-04-20T11:50:08.184Z,106912
2017-04-20T11:50:48.590Z,102048
2017-04-20T11:51:29.017Z,100736
2017-04-20T11:52:09.427Z,102688
2017-04-20T11:52:49.836Z,106784
2017-04-20T11:53:30.252Z,110656
2017-04-20T11:54:10.688Z,110368
2017-04-20T11:54:51.096Z,107488
2017-04-20T11:55:31.552Z,104288
2017-04-20T11:56:11.964Z,100448
2017-04-20T11:56:52.420Z,99168
2017-04-20T11:57:33.256Z,98400
2017-04-20T11:58:14.180Z,96960
2017-04-20T11:58:54.826Z,94688
2017-04-20T11:59:37.567Z,99808
2017-04-20T12:00:17.959Z,102368
2017-04-20T12:00:58.689Z,105888
2017-04-20T12:01:39.149Z,98304
2017-04-20T12:02:19.544Z,96704
2017-04-20T12:02:59.996Z,98304
2017-04-20T12:03:40.415Z,104096
2017-04-20T12:04:20.815Z,102944
2017-04-20T12:06:53.991Z,97856
2017-04-20T12:07:34.443Z,93504
2017-04-20T12:08:14.842Z,96416
2017-04-20T12:08:55.290Z,100384
2017-04-20T12:09:35.703Z,100512
2017-04-20T12:10:16.157Z,102944
2017-04-20T12:10:56.567Z,101472
2017-04-20T12:11:36.975Z,102592
2017-04-20T12:12:17.426Z,100672
2017-04-20T12:12:57.906Z,101024
2017-04-20T12:13:38.318Z,100736
2017-04-20T12:14:18.739Z,98400
2017-04-20T12:14:59.191Z,97792
2017-04-20T12:15:39.695Z,98016
2017-04-20T12:16:20.150Z,98560
2017-04-20T12:17:00.514Z,103488
2017-04-20T12:17:40.982Z,106944
2017-04-20T12:18:21.398Z,105888
2017-04-20T12:19:01.822Z,97984
2017-04-20T12:19:42.212Z,98336
2017-04-20T12:20:22.667Z,99840
2017-04-20T12:21:03.091Z,102368
2017-04-20T12:21:43.522Z,100800
2017-04-20T12:22:23.970Z,99264
2017-04-20T12:23:04.416Z,99648
2017-04-20T12:23:44.826Z,100480
2017-04-20T12:24:25.260Z,99360
2017-04-20T12:25:05.715Z,92384
2017-04-20T12:25:46.134Z,89664
2017-04-20T12:26:26.589Z,91456
2017-04-20T12:27:07.026Z,90208
2017-04-20T12:27:47.477Z,92352
2017-04-20T12:28:27.922Z,96864
2017-04-20T12:29:08.332Z,98528
2017-04-20T12:29:48.777Z,96768
2017-04-20T12:30:29.215Z,94144
2017-04-20T12:31:09.544Z,94656
2017-04-20T12:31:50.039Z,96512
2017-04-20T12:32:30.414Z,96608
2017-04-20T12:33:10.879Z,94976
2017-04-20T12:33:51.334Z,98432
2017-04-20T12:34:31.713Z,100640
2017-04-20T12:35:12.141Z,96928
2017-04-20T12:35:52.577Z,92736
2017-04-20T12:36:32.979Z,90304
2017-04-20T12:37:13.404Z,89152
2017-04-20T12:37:53.846Z,86144
2017-04-20T12:38:34.226Z,86784
2017-04-20T12:39:14.663Z,85952
2017-04-20T12:39:55.151Z,85504
2017-04-20T12:42:24.350Z,83936
2017-04-20T12:43:04.476Z,85120
2017-04-20T12:43:44.926Z,83168
2017-04-20T12:44:25.313Z,79712
2017-04-20T12:45:05.737Z,75168
2017-04-20T12:45:46.211Z,74976
2017-04-20T12:46:26.637Z,83264
2017-04-20T12:47:07.066Z,88384
2017-04-20T12:47:47.488Z,87456
2017-04-20T12:48:27.935Z,88224
2017-04-20T12:49:08.335Z,91040
2017-04-20T12:49:48.787Z,83520
2017-04-20T12:50:29.226Z,81568
2017-04-20T12:51:09.657Z,86016
2017-04-20T12:51:50.076Z,86880
2017-04-20T12:52:30.528Z,82464
2017-04-20T12:53:10.929Z,85184
2017-04-20T12:53:51.369Z,83008
2017-04-20T12:54:31.805Z,75616
2017-04-20T12:55:12.241Z,54464
2017-04-20T12:55:52.635Z,33152
2017-04-20T12:56:33.108Z,18720
2017-04-20T12:57:13.524Z,16744
2017-04-20T12:57:53.970Z,15496
2017-04-20T12:58:34.371Z,14516
2017-04-20T12:59:14.860Z,13684
2017-04-20T12:59:55.253Z,13156
2017-04-20T13:00:35.657Z,12732
2017-04-20T13:01:16.138Z,12536
2017-04-20T13:01:56.547Z,12388
2017-04-20T13:02:36.997Z,12264
2017-04-20T13:03:17.425Z,12288
2017-04-20T13:03:57.876Z,12208
2017-04-20T13:04:38.398Z,12220
2017-04-20T13:05:18.826Z,12168
2017-04-20T13:05:59.141Z,12048
2017-04-20T13:06:39.663Z,12240
2017-04-20T13:07:20.178Z,12152
2017-04-20T13:08:00.548Z,12104
2017-04-20T13:08:40.979Z,11808
2017-04-20T13:09:21.398Z,11696
2017-04-20T13:10:01.796Z,11668
2017-04-20T13:10:42.222Z,11544
2017-04-20T13:11:22.695Z,11536
2017-04-20T13:12:03.070Z,11572
2017-04-20T13:12:43.497Z,11608
2017-04-20T13:13:23.938Z,11548
2017-04-20T13:14:04.314Z,11604
2017-04-20T13:14:44.727Z,11584
2017-04-20T13:15:25.140Z,11600
2017-04-20T13:16:05.537Z,11572
2017-04-20T13:16:45.976Z,11524
2017-04-20T13:17:26.529Z,11408
2017-04-20T13:18:06.955Z,11300
2017-04-20T13:18:47.933Z,11332
2017-04-20T13:19:28.342Z,11352
2017-04-20T13:20:08.772Z,11464
2017-04-20T13:20:49.141Z,11476
2017-04-20T13:21:29.579Z,11384
2017-04-20T13:22:09.991Z,11396
2017-04-20T13:22:50.418Z,11540
2017-04-20T13:23:30.795Z,11816
2017-04-20T13:24:11.151Z,11744
2017-04-20T13:24:51.624Z,11572
2017-04-20T13:25:32.235Z,11584
2017-04-20T13:26:12.653Z,11696
2017-04-20T13:26:53.138Z,11552
2017-04-20T13:27:33.580Z,11352
2017-04-20T13:28:14.003Z,11468
2017-04-20T13:28:54.390Z,11320
2017-04-20T13:29:35.733Z,11228
2017-04-20T13:30:16.176Z,10848
2017-04-20T13:30:56.647Z,10972
2017-04-20T13:31:37.055Z,11124
2017-04-20T13:32:17.459Z,11164
2017-04-20T13:32:57.862Z,11096
2017-04-20T13:33:39.249Z,11000
2017-04-20T13:34:19.658Z,10948
2017-04-20T13:35:00.039Z,11056
2017-04-20T13:35:40.675Z,11196
2017-04-20T13:36:21.078Z,11356
2017-04-20T13:37:02.423Z,11408
2017-04-20T13:37:42.838Z,11292
2017-04-20T13:38:23.310Z,11048
2017-04-20T13:39:03.725Z,11128
2017-04-20T13:39:44.157Z,11076
2017-04-20T13:40:25.536Z,11072
2017-04-20T13:41:05.901Z,11148
2017-04-20T13:41:46.315Z,11260
2017-04-20T13:42:26.731Z,11188
2017-04-20T13:43:07.464Z,11184
2017-04-20T13:43:48.412Z,11140
2017-04-20T13:44:29.898Z,10612
2017-04-20T13:45:12.809Z,10876
2017-04-20T13:45:53.286Z,10772
2017-04-20T13:46:33.679Z,10848
2017-04-20T13:47:15.666Z,10652
2017-04-20T13:47:55.404Z,10820
2017-04-20T13:48:35.781Z,11092
2017-04-20T13:49:16.210Z,11132
2017-04-20T13:49:56.597Z,11188
2017-04-20T13:50:37.813Z,11264
2017-04-20T13:51:18.292Z,10884
2017-04-20T13:51:58.662Z,11044
2017-04-20T13:52:39.850Z,10832
2017-04-20T13:53:20.211Z,10952
2017-04-20T13:54:00.568Z,11120
2017-04-20T13:54:41.006Z,10820
2017-04-20T13:55:22.716Z,10756
2017-04-20T13:56:03.767Z,10408
2017-04-20T13:56:44.173Z,9984
2017-04-20T13:57:25.752Z,9220
2017-04-20T13:58:06.220Z,10464
2017-04-20T13:58:46.617Z,10736
2017-04-20T13:59:27.012Z,10804
2017-04-20T14:00:08.378Z,10804
2017-04-20T14:00:48.733Z,10656
2017-04-20T14:01:29.791Z,10380
2017-04-20T14:02:10.150Z,10552
2017-04-20T14:02:50.667Z,10308
2017-04-20T14:03:31.057Z,10432
2017-04-20T14:04:11.433Z,10304
2017-04-20T14:04:52.775Z,10136
2017-04-20T14:05:33.244Z,9528
2017-04-20T14:08:17.284Z,9632
2017-04-20T14:09:05.208Z,9988
2017-04-20T14:09:54.186Z,9784
2017-04-20T14:10:42.631Z,9660
2017-04-20T14:11:31.412Z,9728
2017-04-20T14:12:20.083Z,9508
2017-04-20T14:13:08.382Z,9256
2017-04-20T14:13:56.811Z,9324
2017-04-20T14:14:45.326Z,9272
2017-04-20T14:15:33.902Z,9032
2017-04-20T14:16:23.174Z,8880
2017-04-20T14:17:11.564Z,8952
2017-04-20T14:18:00.046Z,8840
2017-04-20T14:18:43.526Z,8784
2017-04-20T14:19:23.968Z,8680
2017-04-20T14:20:05.549Z,8456
2017-04-20T14:20:45.989Z,8380
2017-04-20T14:21:27.022Z,8372
2017-04-20T14:22:09.038Z,8568
2017-04-20T14:22:49.514Z,8748
2017-04-20T14:23:29.878Z,8744
2017-04-20T14:24:10.288Z,8492
2017-04-20T14:24:50.732Z,8544
2017-04-20T14:25:31.903Z,8504
2017-04-20T14:26:12.265Z,8360
2017-04-20T14:26:52.879Z,8344
2017-04-20T14:27:33.858Z,8292
2017-04-20T14:28:15.134Z,8272
2017-04-20T14:28:55.573Z,8412
2017-04-20T14:29:37.877Z,8444
2017-04-20T14:30:18.296Z,8412
2017-04-20T14:31:00.287Z,8468
2017-04-20T14:31:41.450Z,8432
2017-04-20T14:32:21.833Z,8492
2017-04-20T14:33:02.225Z,8496
2017-04-20T14:33:42.718Z,8468
2017-04-20T14:34:23.154Z,8428
2017-04-20T14:35:03.571Z,8440
2017-04-20T14:35:45.817Z,8384
2017-04-20T14:36:26.200Z,8164
2017-04-20T14:37:06.612Z,8128
2017-04-20T14:37:46.982Z,8268
2017-04-20T14:38:27.413Z,8388
2017-04-20T14:39:09.590Z,8368
2017-04-20T14:39:50.808Z,8232
2017-04-20T14:40:31.717Z,7976
2017-04-20T14:41:12.148Z,7960
2017-04-20T14:41:54.141Z,7976
2017-04-20T14:42:36.322Z,7888
2017-04-20T14:43:16.744Z,7780
2017-04-20T14:43:57.148Z,7596
2017-04-20T14:44:37.596Z,7624
2017-04-20T14:45:18.695Z,7600
2017-04-20T14:45:59.795Z,7596
2017-04-20T14:46:40.219Z,7752
2017-04-20T14:47:20.654Z,7824
2017-04-20T14:48:01.069Z,7976
2017-04-20T14:48:42.420Z,8032
2017-04-20T14:49:22.784Z,8108
2017-04-20T14:50:04.040Z,8120
2017-04-20T14:50:45.166Z,7976
2017-04-20T14:51:25.534Z,7808
2017-04-20T14:52:05.938Z,7708
2017-04-20T14:52:48.064Z,7656
2017-04-20T14:53:28.437Z,7464
2017-04-20T14:54:11.528Z,7600
2017-04-20T14:54:52.053Z,7360
2017-04-20T14:57:19.923Z,7296
2017-04-20T14:58:08.255Z,7220
2017-04-20T14:58:57.165Z,7148
2017-04-20T14:59:45.392Z,7140
2017-04-20T15:00:34.129Z,7104
2017-04-20T15:01:24.007Z,7108
2017-04-20T15:02:12.373Z,7036
2017-04-20T15:03:01.025Z,6860
2017-04-20T15:03:42.505Z,6736
2017-04-20T15:06:04.867Z,6588
2017-04-20T15:06:53.517Z,6568
2017-04-20T15:07:42.333Z,6512
2017-04-20T15:08:30.665Z,6404
2017-04-20T15:09:19.105Z,6364
2017-04-20T15:10:08.317Z,6344
2017-04-20T15:10:56.951Z,6324
2017-04-20T15:11:45.557Z,6272
2017-04-20T15:12:34.283Z,6284
2017-04-20T15:13:22.518Z,6276
2017-04-20T15:14:11.415Z,6272
2017-04-20T15:15:01.024Z,6320
2017-04-20T15:15:49.802Z,6304
2017-04-20T15:16:38.947Z,6240
2017-04-20T15:17:26.973Z,6164
2017-04-20T15:18:15.806Z,6064
2017-04-20T15:19:04.112Z,5900
2017-04-20T15:19:53.642Z,5812
2017-04-20T15:20:42.200Z,5688
2017-04-20T15:21:31.252Z,5652
2017-04-20T15:22:19.456Z,5600
2017-04-20T15:23:09.805Z,5416
2017-04-20T15:23:58.753Z,5376
2017-04-20T15:24:47.452Z,5176
2017-04-20T15:25:37.454Z,5052
2017-04-20T15:26:26.247Z,5052
2017-04-20T15:27:08.463Z,5036
2017-04-20T15:27:48.880Z,4976
2017-04-20T15:28:29.780Z,4976
2017-04-20T15:29:10.176Z,4976
2017-04-20T15:29:50.569Z,4948
2017-04-20T15:30:31.791Z,4900
2017-04-20T15:31:12.688Z,4888
2017-04-20T15:33:24.411Z,4700
2017-04-20T15:34:13.290Z,4664
2017-04-20T15:35:01.912Z,4624
2017-04-20T15:35:50.524Z,4588
2017-04-20T15:36:39.103Z,4576
2017-04-20T15:37:27.542Z,4564
2017-04-20T15:38:16.895Z,4552
2017-04-20T15:39:05.174Z,4520
2017-04-20T15:39:50.891Z,4416
2017-04-20T15:40:31.690Z,4392
2017-04-20T15:41:12.115Z,4336
2017-04-20T15:41:54.420Z,4344
2017-04-20T15:42:35.571Z,4340
2017-04-20T15:43:15.939Z,4356
2017-04-20T15:43:57.275Z,4372
2017-04-20T15:44:38.595Z,4352
2017-04-20T15:45:19.754Z,4328
2017-04-20T15:46:01.891Z,4300
2017-04-20T21:07:56.134Z,0
2017-04-20T21:08:44.785Z,0
2017-04-20T21:11:06.124Z,0
2017-04-20T21:11:54.918Z,0
2017-04-20T21:12:43.498Z,0
2017-04-20T21:13:32.266Z,0
2017-04-20T21:14:20.654Z,0
2017-04-20T21:15:09.778Z,0
2017-04-20T21:15:58.824Z,0
2017-04-20T21:16:47.547Z,0
2017-04-20T21:17:36.108Z,0
2017-04-20T21:18:25.372Z,0
2017-04-20T21:19:13.756Z,0
2017-04-20T21:20:02.132Z,0
2017-04-20T21:20:50.977Z,0
2017-04-20T21:21:39.821Z,0
2017-04-20T21:22:28.388Z,0
2017-04-20T21:23:17.108Z,0
2017-04-20T21:24:05.892Z,0
2017-04-20T21:24:54.931Z,0
2017-04-20T21:25:43.444Z,0
2017-04-20T21:26:32.081Z,0
2017-04-20T21:27:21.575Z,0
2017-04-20T21:28:10.800Z,0
2017-04-20T21:28:59.242Z,0
2017-04-20T21:29:48.527Z,0
2017-04-20T21:30:37.305Z,0
2017-04-20T21:31:25.888Z,0
2017-04-20T21:32:14.502Z,0
2017-04-20T21:33:03.309Z,0
2017-04-20T21:33:53.441Z,0
2017-04-20T21:36:15.606Z,0
2017-04-20T21:37:04.170Z,0
2017-04-20T21:37:52.886Z,0
2017-04-20T21:38:41.623Z,0
2017-04-20T21:39:29.916Z,0
2017-04-20T21:40:19.100Z,0
2017-04-20T21:41:04.890Z,0
2017-04-20T21:41:52.616Z,0
2017-04-20T21:42:40.808Z,0
2017-04-20T21:43:29.763Z,0
2017-04-20T21:44:19.063Z,0
2017-04-20T21:45:08.525Z,0
2017-04-20T21:45:57.554Z,0
2017-04-20T21:46:39.123Z,0
2017-04-20T21:47:19.636Z,0
2017-04-20T21:48:03.554Z,0
2017-04-20T21:48:59.269Z,0
2017-04-20T21:49:39.910Z,0
2017-04-20T21:50:20.868Z,0
2017-04-20T21:51:01.197Z,0
2017-04-20T21:51:42.256Z,0
2017-04-20T21:52:22.671Z,0
2017-04-20T21:53:03.767Z,0
2017-04-20T21:53:44.477Z,0
2017-04-20T21:54:24.856Z,0
2017-04-20T21:55:05.218Z,0
2017-04-20T21:55:45.650Z,0